createdAt,value
2018-12-11T00:00:31.403Z,34.11
2018-12-11T00:01:31.434Z,33.20
2018-12-11T00:02:31.387Z,33.20
2018-12-11T00:03:31.433Z,33.51
2018-12-11T00:04:31.513Z,34.61
2018-12-11T00:05:31.377Z,33.61
2018-12-11T00:06:31.340Z,33.51
2018-12-11T00:07:31.327Z,33.20
2018-12-11T00:08:31.320Z,34.01
2018-12-11T00:09:31.312Z,34.31
2018-12-11T00:10:31.293Z,34.31
2018-12-11T00:11:33.958Z,34.11
2018-12-11T00:12:31.282Z,33.81
2018-12-11T00:13:31.266Z,33.20
2018-12-11T00:14:31.253Z,33.20
2018-12-11T00:15:31.240Z,33.20
2018-12-11T00:16:31.214Z,33.20
2018-12-11T00:17:31.209Z,33.91
2018-12-11T00:18:31.232Z,33.91
2018-12-11T00:19:31.210Z,33.81
2018-12-11T00:20:31.166Z,34.01
2018-12-11T00:21:31.153Z,34.61
2018-12-11T00:22:31.149Z,34.61
2018-12-11T00:23:31.133Z,34.21
2018-12-11T00:24:31.134Z,34.71
2018-12-11T00:25:31.135Z,33.71
2018-12-11T00:26:31.096Z,34.31
2018-12-11T00:27:31.096Z,34.21
2018-12-11T00:28:31.089Z,34.33
2018-12-11T00:29:31.076Z,34.31
2018-12-11T00:30:31.051Z,33.72
2018-12-11T00:31:31.043Z,34.01
2018-12-11T00:32:31.113Z,34.31
2018-12-11T00:33:31.039Z,33.61
2018-12-11T00:34:31.085Z,33.40
2018-12-11T00:35:31.041Z,34.31
2018-12-11T00:36:31.008Z,33.31
2018-12-11T00:37:30.976Z,34.21
2018-12-11T00:38:30.996Z,34.31
2018-12-11T00:39:30.969Z,34.21
2018-12-11T00:40:30.983Z,34.31
2018-12-11T00:41:30.950Z,34.31
2018-12-11T00:42:30.923Z,34.41
2018-12-11T00:43:30.943Z,34.31
2018-12-11T00:44:30.923Z,34.12
2018-12-11T00:45:30.913Z,34.33
2018-12-11T00:46:30.876Z,33.92
2018-12-11T00:47:30.871Z,34.33
2018-12-11T00:48:30.860Z,34.53
2018-12-11T00:49:30.889Z,34.31
2018-12-11T00:50:30.845Z,33.42
2018-12-11T00:51:30.835Z,34.31
2018-12-11T00:52:30.846Z,34.51
2018-12-11T00:53:30.818Z,34.41
2018-12-11T00:54:30.797Z,34.51
2018-12-11T00:55:30.811Z,34.31
2018-12-11T00:56:30.773Z,34.61
2018-12-11T00:57:30.771Z,34.01
2018-12-11T00:58:30.743Z,33.81
2018-12-11T00:59:30.757Z,33.81
2018-12-11T01:00:30.731Z,33.81
2018-12-11T01:01:30.716Z,34.01
2018-12-11T01:02:30.730Z,33.91
2018-12-11T01:03:30.724Z,33.40
2018-12-11T01:04:30.800Z,33.11
2018-12-11T01:05:30.667Z,33.20
2018-12-11T01:06:30.661Z,33.61
2018-12-11T01:07:30.690Z,33.81
2018-12-11T01:08:30.633Z,34.61
2018-12-11T01:09:30.628Z,34.41
2018-12-11T01:10:30.622Z,34.22
2018-12-11T01:11:30.598Z,33.81
2018-12-11T01:12:30.584Z,34.53
2018-12-11T01:13:30.586Z,34.33
2018-12-11T01:14:30.566Z,34.53
2018-12-11T01:15:30.583Z,34.53
2018-12-11T01:16:30.564Z,34.12
2018-12-11T01:17:30.526Z,33.92
2018-12-11T01:18:30.565Z,34.53
2018-12-11T01:19:30.522Z,34.42
2018-12-11T01:20:30.515Z,34.33
2018-12-11T01:21:30.543Z,34.22
2018-12-11T01:22:30.492Z,34.31
2018-12-11T01:23:30.462Z,34.12
2018-12-11T01:24:30.510Z,34.83
2018-12-11T01:25:30.486Z,34.22
2018-12-11T01:26:30.431Z,33.83
2018-12-11T01:27:30.487Z,33.91
2018-12-11T01:28:30.405Z,33.91
2018-12-11T01:29:30.416Z,33.71
2018-12-11T01:30:30.428Z,33.42
2018-12-11T01:31:30.404Z,33.42
2018-12-11T01:32:30.443Z,33.20
2018-12-11T01:33:30.346Z,33.22
2018-12-11T01:34:30.359Z,33.61
2018-12-11T01:35:30.373Z,33.91
2018-12-11T01:36:30.342Z,33.91
2018-12-11T01:37:30.306Z,33.72
2018-12-11T01:38:30.359Z,33.83
2018-12-11T01:39:30.276Z,34.02
2018-12-11T01:40:30.315Z,34.61
2018-12-11T01:41:30.258Z,34.61
2018-12-11T01:42:30.296Z,34.41
2018-12-11T01:43:30.270Z,33.91
2018-12-11T01:44:30.349Z,34.21
2018-12-11T01:45:30.258Z,34.31
2018-12-11T01:46:30.230Z,34.21
2018-12-11T01:47:30.186Z,33.81
2018-12-11T01:48:30.236Z,33.61
2018-12-11T01:49:30.162Z,33.71
2018-12-11T01:50:30.153Z,33.81
2018-12-11T01:51:30.148Z,33.81
2018-12-11T01:52:30.232Z,33.71
2018-12-11T01:53:30.124Z,33.71
2018-12-11T01:54:30.130Z,33.71
2018-12-11T01:55:30.098Z,33.51
2018-12-11T01:56:30.101Z,33.20
2018-12-11T01:57:30.084Z,34.01
2018-12-11T01:58:30.075Z,33.40
2018-12-11T01:59:30.071Z,33.11
2018-12-11T02:00:30.036Z,33.91
2018-12-11T02:01:30.046Z,33.22
2018-12-11T02:02:30.021Z,33.22
2018-12-11T02:03:30.008Z,33.83
2018-12-11T02:04:30.105Z,33.20
2018-12-11T02:05:30.051Z,33.62
2018-12-11T02:06:29.994Z,33.81
2018-12-11T02:07:29.960Z,33.92
2018-12-11T02:08:29.982Z,33.83
2018-12-11T02:09:29.961Z,33.92
2018-12-11T02:10:29.947Z,33.91
2018-12-11T02:11:29.936Z,34.42
2018-12-11T02:12:29.936Z,33.92
2018-12-11T02:13:29.936Z,33.83
2018-12-11T02:14:29.900Z,33.42
2018-12-11T02:15:29.891Z,33.20
2018-12-11T02:16:29.881Z,33.20
2018-12-11T02:17:29.863Z,33.72
2018-12-11T02:18:29.854Z,33.91
2018-12-11T02:19:29.837Z,34.01
2018-12-11T02:20:29.889Z,33.92
2018-12-11T02:21:29.825Z,33.22
2018-12-11T02:22:29.791Z,33.52
2018-12-11T02:23:29.782Z,33.22
2018-12-11T02:24:29.886Z,33.52
2018-12-11T02:25:29.759Z,33.83
2018-12-11T02:26:29.771Z,33.62
2018-12-11T02:27:29.755Z,34.02
2018-12-11T02:28:29.727Z,33.92
2018-12-11T02:29:29.712Z,34.02
2018-12-11T02:30:29.747Z,33.72
2018-12-11T02:31:29.706Z,34.42
2018-12-11T02:32:29.678Z,33.83
2018-12-11T02:33:29.689Z,33.22
2018-12-11T02:34:29.740Z,33.40
2018-12-11T02:35:29.648Z,33.20
2018-12-11T02:36:29.646Z,33.20
2018-12-11T02:37:29.627Z,33.20
2018-12-11T02:38:29.611Z,33.31
2018-12-11T02:39:29.634Z,33.40
2018-12-11T02:40:29.593Z,33.40
2018-12-11T02:41:29.629Z,33.81
2018-12-11T02:42:29.583Z,33.71
2018-12-11T02:43:29.554Z,33.20
2018-12-11T02:44:29.599Z,33.81
2018-12-11T02:45:29.548Z,33.40
2018-12-11T02:46:29.534Z,33.72
2018-12-11T02:47:29.689Z,33.22
2018-12-11T02:48:29.513Z,33.62
2018-12-11T02:49:29.495Z,33.52
2018-12-11T02:50:29.481Z,33.22
2018-12-11T02:51:29.572Z,33.12
2018-12-11T02:52:29.516Z,33.22
2018-12-11T02:53:29.446Z,33.32
2018-12-11T02:54:29.436Z,33.42
2018-12-11T02:55:29.431Z,33.22
2018-12-11T02:56:29.455Z,33.42
2018-12-11T02:57:29.423Z,33.42
2018-12-11T02:58:29.437Z,33.22
2018-12-11T02:59:29.387Z,33.22
2018-12-11T03:00:29.371Z,33.22
2018-12-11T03:01:29.394Z,34.11
2018-12-11T03:02:29.418Z,33.22
2018-12-11T03:03:29.351Z,33.32
2018-12-11T03:04:29.400Z,33.22
2018-12-11T03:05:29.305Z,33.22
2018-12-11T03:06:29.314Z,33.42
2018-12-11T03:07:29.304Z,33.42
2018-12-11T03:08:29.300Z,33.62
2018-12-11T03:09:29.294Z,33.12
2018-12-11T03:10:29.318Z,34.02
2018-12-11T03:11:29.253Z,34.63
2018-12-11T03:12:29.279Z,33.52
2018-12-11T03:13:29.240Z,34.22
2018-12-11T03:14:29.235Z,33.83
2018-12-11T03:15:29.190Z,34.63
2018-12-11T03:16:29.191Z,34.12
2018-12-11T03:17:29.188Z,33.62
2018-12-11T03:18:29.212Z,34.53
2018-12-11T03:19:29.254Z,33.62
2018-12-11T03:20:29.149Z,34.02
2018-12-11T03:21:29.131Z,33.83
2018-12-11T03:22:29.134Z,33.72
2018-12-11T03:23:29.136Z,34.22
2018-12-11T03:24:29.102Z,33.91
2018-12-11T03:25:29.090Z,33.61
2018-12-11T03:26:29.102Z,34.02
2018-12-11T03:27:29.153Z,33.22
2018-12-11T03:28:29.060Z,33.32
2018-12-11T03:29:29.049Z,33.71
2018-12-11T03:30:29.039Z,33.51
2018-12-11T03:31:29.038Z,33.81
2018-12-11T03:32:29.028Z,33.62
2018-12-11T03:33:29.042Z,33.71
2018-12-11T03:34:29.037Z,33.81
2018-12-11T03:35:28.999Z,33.81
2018-12-11T03:36:28.975Z,33.71
2018-12-11T03:37:28.994Z,33.51
2018-12-11T03:38:28.957Z,33.83
2018-12-11T03:39:28.947Z,33.52
2018-12-11T03:40:28.914Z,33.51
2018-12-11T03:41:28.902Z,33.52
2018-12-11T03:42:28.928Z,33.83
2018-12-11T03:43:28.888Z,33.52
2018-12-11T03:44:28.895Z,33.92
2018-12-11T03:45:28.881Z,33.22
2018-12-11T03:46:28.947Z,33.22
2018-12-11T03:47:28.906Z,33.42
2018-12-11T03:48:28.880Z,33.22
2018-12-11T03:49:28.830Z,33.32
2018-12-11T03:50:28.846Z,33.52
2018-12-11T03:51:28.823Z,33.52
2018-12-11T03:52:28.794Z,33.83
2018-12-11T03:53:28.825Z,33.72
2018-12-11T03:54:28.773Z,33.22
2018-12-11T03:55:28.753Z,33.22
2018-12-11T03:56:28.779Z,33.20
2018-12-11T03:57:28.825Z,33.22
2018-12-11T03:58:28.741Z,33.32
2018-12-11T03:59:28.718Z,33.22
2018-12-11T04:00:28.686Z,33.22
2018-12-11T04:01:28.723Z,33.22
2018-12-11T04:02:28.694Z,33.52
2018-12-11T04:03:28.750Z,33.32
2018-12-11T04:04:28.702Z,33.52
2018-12-11T04:05:28.631Z,33.32
2018-12-11T04:06:28.612Z,33.72
2018-12-11T04:07:28.708Z,33.42
2018-12-11T04:08:28.649Z,33.12
2018-12-11T04:09:28.588Z,33.72
2018-12-11T04:10:28.606Z,33.22
2018-12-11T04:11:28.578Z,33.42
2018-12-11T04:12:28.639Z,33.22
2018-12-11T04:13:28.608Z,33.51
2018-12-11T04:14:28.530Z,33.72
2018-12-11T04:15:28.518Z,33.83
2018-12-11T04:16:28.506Z,33.83
2018-12-11T04:17:28.511Z,33.42
2018-12-11T04:18:28.494Z,33.52
2018-12-11T04:19:28.475Z,33.62
2018-12-11T04:20:28.502Z,33.61
2018-12-11T04:21:28.456Z,33.52
2018-12-11T04:22:28.451Z,33.31
2018-12-11T04:23:28.437Z,33.83
2018-12-11T04:24:28.469Z,33.12
2018-12-11T04:25:28.433Z,33.02
2018-12-11T04:26:28.402Z,33.61
2018-12-11T04:27:28.383Z,33.02
2018-12-11T04:28:28.418Z,33.62
2018-12-11T04:29:28.372Z,33.83
2018-12-11T04:30:28.372Z,33.83
2018-12-11T04:31:28.333Z,33.83
2018-12-11T04:32:28.349Z,33.52
2018-12-11T04:33:28.412Z,33.83
2018-12-11T04:34:28.404Z,33.72
2018-12-11T04:35:28.392Z,33.72
2018-12-11T04:36:28.321Z,33.52
2018-12-11T04:37:28.281Z,33.42
2018-12-11T04:38:28.274Z,33.52
2018-12-11T04:39:33.878Z,33.72
2018-12-11T04:40:29.253Z,33.52
2018-12-11T04:41:28.279Z,33.22
2018-12-11T04:42:28.212Z,33.83
2018-12-11T04:43:28.234Z,33.72
2018-12-11T04:44:28.199Z,33.52
2018-12-11T04:45:28.183Z,33.83
2018-12-11T04:46:28.176Z,33.52
2018-12-11T04:47:28.171Z,33.83
2018-12-11T04:48:28.147Z,33.52
2018-12-11T04:49:28.146Z,33.52
2018-12-11T04:50:28.126Z,33.22
2018-12-11T04:51:28.109Z,33.72
2018-12-11T04:52:28.121Z,33.52
2018-12-11T04:53:28.091Z,33.83
2018-12-11T04:54:28.090Z,33.72
2018-12-11T04:55:28.075Z,33.62
2018-12-11T04:56:28.067Z,33.83
2018-12-11T04:57:28.045Z,33.83
2018-12-11T04:58:28.068Z,33.52
2018-12-11T04:59:28.058Z,33.52
2018-12-11T05:00:28.049Z,33.52
2018-12-11T05:01:28.008Z,33.32
2018-12-11T05:02:27.987Z,33.51
2018-12-11T05:03:27.989Z,33.51
2018-12-11T05:04:28.195Z,33.22
2018-12-11T05:05:27.954Z,33.51
2018-12-11T05:06:27.970Z,33.62
2018-12-11T05:07:27.943Z,33.52
2018-12-11T05:08:27.931Z,33.52
2018-12-11T05:09:27.972Z,33.83
2018-12-11T05:10:27.912Z,33.72
2018-12-11T05:11:27.882Z,33.72
2018-12-11T05:12:27.938Z,33.52
2018-12-11T05:13:27.864Z,33.62
2018-12-11T05:14:27.861Z,33.22
2018-12-11T05:15:27.878Z,33.42
2018-12-11T05:16:27.828Z,33.52
2018-12-11T05:17:27.821Z,33.52
2018-12-11T05:18:27.812Z,33.52
2018-12-11T05:19:27.807Z,33.72
2018-12-11T05:20:27.821Z,33.32
2018-12-11T05:21:27.836Z,33.52
2018-12-11T05:22:27.777Z,33.83
2018-12-11T05:23:27.792Z,33.23
2018-12-11T05:24:27.778Z,33.83
2018-12-11T05:25:27.736Z,33.72
2018-12-11T05:26:27.737Z,33.22
2018-12-11T05:27:27.699Z,33.42
2018-12-11T05:28:27.687Z,33.42
2018-12-11T05:29:27.767Z,33.83
2018-12-11T05:30:27.673Z,33.52
2018-12-11T05:31:27.652Z,33.42
2018-12-11T05:32:27.669Z,33.22
2018-12-11T05:33:27.638Z,33.02
2018-12-11T05:34:27.677Z,33.83
2018-12-11T05:35:27.623Z,33.22
2018-12-11T05:36:27.615Z,33.92
2018-12-11T05:37:27.585Z,33.83
2018-12-11T05:38:27.577Z,33.42
2018-12-11T05:39:27.581Z,33.32
2018-12-11T05:40:27.553Z,33.83
2018-12-11T05:41:27.600Z,33.83
2018-12-11T05:42:27.535Z,33.83
2018-12-11T05:43:27.554Z,33.22
2018-12-11T05:44:27.531Z,33.72
2018-12-11T05:45:27.496Z,33.23
2018-12-11T05:46:27.509Z,33.22
2018-12-11T05:47:27.510Z,33.72
2018-12-11T05:48:27.465Z,33.72
2018-12-11T05:49:27.455Z,33.22
2018-12-11T05:50:27.479Z,33.52
2018-12-11T05:51:27.440Z,33.52
2018-12-11T05:52:27.422Z,33.52
2018-12-11T05:53:27.418Z,33.22
2018-12-11T05:54:27.397Z,33.12
2018-12-11T05:55:27.393Z,33.22
2018-12-11T05:56:27.369Z,33.31
2018-12-11T05:57:27.392Z,33.22
2018-12-11T05:58:27.426Z,33.22
2018-12-11T05:59:27.339Z,33.12
2018-12-11T06:00:27.335Z,33.32
2018-12-11T06:01:27.329Z,33.11
2018-12-11T06:02:27.362Z,33.32
2018-12-11T06:03:27.312Z,33.32
2018-12-11T06:04:27.303Z,33.22
2018-12-11T06:05:27.350Z,33.62
2018-12-11T06:06:27.262Z,33.52
2018-12-11T06:07:27.277Z,33.62
2018-12-11T06:08:27.241Z,33.12
2018-12-11T06:09:27.322Z,33.72
2018-12-11T06:10:27.233Z,33.32
2018-12-11T06:11:27.260Z,33.72
2018-12-11T06:12:27.217Z,33.83
2018-12-11T06:13:27.191Z,33.72
2018-12-11T06:14:27.201Z,33.22
2018-12-11T06:15:27.182Z,33.52
2018-12-11T06:16:27.147Z,33.52
2018-12-11T06:17:27.129Z,33.92
2018-12-11T06:18:27.119Z,33.52
2018-12-11T06:19:27.155Z,33.32
2018-12-11T06:20:27.142Z,33.92
2018-12-11T06:21:27.100Z,33.22
2018-12-11T06:22:27.084Z,34.33
2018-12-11T06:23:27.069Z,34.33
2018-12-11T06:24:27.052Z,34.33
2018-12-11T06:25:27.063Z,34.02
2018-12-11T06:26:27.038Z,34.02
2018-12-11T06:27:27.042Z,33.92
2018-12-11T06:28:27.021Z,33.92
2018-12-11T06:29:27.025Z,34.73
2018-12-11T06:30:26.990Z,33.83
2018-12-11T06:31:27.021Z,33.62
2018-12-11T06:32:26.977Z,34.12
2018-12-11T06:33:26.985Z,33.32
2018-12-11T06:34:26.956Z,33.22
2018-12-11T06:35:26.945Z,33.42
2018-12-11T06:36:26.995Z,33.42
2018-12-11T06:37:26.934Z,33.22
2018-12-11T06:38:26.899Z,33.22
2018-12-11T06:39:26.922Z,33.22
2018-12-11T06:40:27.026Z,33.72
2018-12-11T06:41:26.867Z,33.42
2018-12-11T06:42:26.849Z,33.62
2018-12-11T06:43:26.894Z,33.92
2018-12-11T06:44:26.830Z,33.20
2018-12-11T06:45:26.863Z,33.20
2018-12-11T06:46:26.841Z,33.22
2018-12-11T06:47:26.795Z,33.72
2018-12-11T06:48:26.818Z,33.42
2018-12-11T06:49:26.850Z,33.71
2018-12-11T06:50:26.863Z,33.52
2018-12-11T06:51:26.784Z,33.22
2018-12-11T06:52:26.792Z,33.71
2018-12-11T06:53:26.762Z,33.72
2018-12-11T06:54:26.729Z,33.42
2018-12-11T06:55:26.750Z,33.12
2018-12-11T06:56:26.741Z,33.62
2018-12-11T06:57:26.721Z,33.22
2018-12-11T06:58:26.743Z,33.12
2018-12-11T06:59:26.921Z,33.12
2018-12-11T07:00:26.643Z,33.83
2018-12-11T07:01:26.645Z,33.72
2018-12-11T07:02:26.623Z,34.21
2018-12-11T07:03:26.621Z,33.62
2018-12-11T07:04:26.684Z,33.83
2018-12-11T07:05:26.710Z,33.81
2018-12-11T07:06:26.599Z,33.40
2018-12-11T07:07:26.607Z,33.71
2018-12-11T07:08:26.621Z,33.71
2018-12-11T07:09:26.564Z,33.20
2018-12-11T07:10:26.645Z,33.51
2018-12-11T07:11:26.581Z,33.71
2018-12-11T07:12:26.531Z,33.51
2018-12-11T07:13:26.503Z,33.71
2018-12-11T07:14:26.576Z,33.51
2018-12-11T07:15:26.490Z,33.79
2018-12-11T07:16:26.471Z,33.39
2018-12-11T07:17:26.466Z,33.71
2018-12-11T07:18:26.472Z,33.49
2018-12-11T07:19:26.454Z,33.69
2018-12-11T07:20:26.480Z,33.51
2018-12-11T07:21:26.414Z,33.20
2018-12-11T07:22:26.414Z,33.39
2018-12-11T07:23:26.425Z,32.99
2018-12-11T07:24:26.376Z,33.69
2018-12-11T07:25:26.397Z,33.19
2018-12-11T07:26:26.398Z,33.39
2018-12-11T07:27:26.380Z,33.69
2018-12-11T07:28:26.341Z,33.89
2018-12-11T07:29:26.391Z,33.09
2018-12-11T07:30:26.326Z,33.49
2018-12-11T07:31:26.331Z,33.29
2018-12-11T07:32:26.319Z,33.47
2018-12-11T07:33:26.307Z,33.49
2018-12-11T07:34:26.365Z,33.37
2018-12-11T07:35:26.323Z,33.37
2018-12-11T07:36:26.238Z,33.17
2018-12-11T07:37:26.327Z,33.28
2018-12-11T07:38:26.250Z,33.28
2018-12-11T07:39:26.219Z,33.17
2018-12-11T07:40:26.220Z,33.58
2018-12-11T07:41:26.197Z,33.37
2018-12-11T07:42:26.225Z,33.58
2018-12-11T07:43:26.156Z,33.87
2018-12-11T07:44:26.169Z,33.37
2018-12-11T07:45:26.138Z,33.09
2018-12-11T07:46:26.121Z,33.07
2018-12-11T07:47:26.148Z,33.47
2018-12-11T07:48:26.115Z,33.37
2018-12-11T07:49:26.097Z,33.28
2018-12-11T07:50:26.097Z,33.47
2018-12-11T07:51:26.188Z,33.78
2018-12-11T07:52:26.054Z,33.67
2018-12-11T07:53:26.070Z,33.58
2018-12-11T07:54:26.036Z,33.58
2018-12-11T07:55:26.027Z,33.58
2018-12-11T07:56:26.021Z,33.47
2018-12-11T07:57:26.004Z,33.07
2018-12-11T07:58:26.109Z,33.78
2018-12-11T07:59:26.009Z,33.29
2018-12-11T08:00:26.016Z,33.87
2018-12-11T08:01:25.964Z,33.98
2018-12-11T08:02:25.972Z,34.67
2018-12-11T08:03:26.209Z,34.58
2018-12-11T08:04:26.244Z,34.28
2018-12-11T08:05:26.044Z,33.79
2018-12-11T08:06:25.898Z,33.52
2018-12-11T08:07:26.047Z,35.50
2018-12-11T08:08:25.900Z,36.29
2018-12-11T08:09:25.867Z,40.82
2018-12-11T08:10:25.853Z,41.16
2018-12-11T08:11:25.876Z,42.03
2018-12-11T08:12:25.829Z,43.47
2018-12-11T08:13:25.860Z,43.99
2018-12-11T08:14:25.813Z,44.42
2018-12-11T08:15:25.831Z,44.85
2018-12-11T08:16:26.033Z,45.56
2018-12-11T08:17:25.804Z,44.87
2018-12-11T08:18:25.773Z,45.40
2018-12-11T08:19:25.788Z,47.14
2018-12-11T08:20:25.751Z,47.58
2018-12-11T08:21:25.898Z,47.39
2018-12-11T08:22:25.745Z,47.90
2018-12-11T08:23:25.734Z,48.13
2018-12-11T08:24:25.759Z,48.84
2018-12-11T08:25:25.686Z,48.13
2018-12-11T08:26:25.681Z,47.82
2018-12-11T08:27:25.667Z,48.15
2018-12-11T08:28:25.656Z,48.86
2018-12-11T08:29:25.663Z,48.48
2018-12-11T08:30:25.640Z,49.50
2018-12-11T08:31:25.720Z,51.43
2018-12-11T08:32:25.607Z,48.07
2018-12-11T08:33:25.633Z,48.35
2018-12-11T08:34:25.611Z,48.23
2018-12-11T08:35:25.574Z,47.42
2018-12-11T08:36:25.553Z,47.21
2018-12-11T08:37:25.573Z,48.03
2018-12-11T08:38:25.534Z,47.09
2018-12-11T08:39:27.030Z,45.46
2018-12-11T08:40:25.510Z,47.09
2018-12-11T08:41:25.594Z,46.56
2018-12-11T08:42:25.495Z,46.86
2018-12-11T08:43:25.521Z,45.95
2018-12-11T08:44:25.587Z,45.32
2018-12-11T08:45:25.458Z,45.44
2018-12-11T08:46:25.444Z,44.91
2018-12-11T08:47:25.463Z,46.48
2018-12-11T08:48:25.424Z,45.06
2018-12-11T08:49:25.433Z,48.64
2018-12-11T08:50:25.453Z,46.89
2018-12-11T08:51:25.384Z,47.21
2018-12-11T08:52:25.376Z,46.81
2018-12-11T08:53:25.376Z,51.08
2018-12-11T08:54:25.362Z,46.58
2018-12-11T08:55:25.386Z,46.98
2018-12-11T08:56:25.345Z,47.11
2018-12-11T08:57:25.320Z,47.64
2018-12-11T08:58:25.334Z,48.48
2018-12-11T08:59:25.327Z,48.58
2018-12-11T09:00:25.322Z,49.01
2018-12-11T09:01:25.285Z,49.01
2018-12-11T09:02:25.278Z,49.01
2018-12-11T09:03:25.288Z,49.34
2018-12-11T09:04:25.344Z,50.15
2018-12-11T09:05:25.279Z,49.21
2018-12-11T09:06:25.217Z,49.75
2018-12-11T09:07:25.243Z,49.13
2018-12-11T09:08:25.200Z,49.67
2018-12-11T09:09:25.233Z,49.24
2018-12-11T09:10:25.201Z,49.75
2018-12-11T09:11:25.167Z,49.77
2018-12-11T09:12:25.157Z,49.98
2018-12-11T09:13:25.140Z,50.18
2018-12-11T09:14:25.190Z,49.67
2018-12-11T09:15:25.113Z,49.67
2018-12-11T09:16:25.122Z,49.24
2018-12-11T09:17:25.114Z,48.73
2018-12-11T09:18:25.087Z,47.99
2018-12-11T09:19:25.155Z,48.40
2018-12-11T09:20:25.058Z,48.40
2018-12-11T09:21:25.044Z,49.11
2018-12-11T09:22:25.123Z,48.63
2018-12-11T09:23:25.027Z,48.71
2018-12-11T09:24:25.101Z,48.30
2018-12-11T09:25:25.129Z,48.30
2018-12-11T09:26:24.989Z,48.27
2018-12-11T09:27:24.978Z,47.79
2018-12-11T09:28:24.966Z,48.83
2018-12-11T09:29:24.997Z,48.42
2018-12-11T09:30:24.951Z,48.73
2018-12-11T09:31:24.963Z,48.93
2018-12-11T09:32:24.965Z,48.32
2018-12-11T09:33:24.913Z,48.93
2018-12-11T09:34:24.990Z,48.93
2018-12-11T09:35:24.890Z,49.34
2018-12-11T09:36:24.884Z,49.54
2018-12-11T09:37:24.902Z,49.44
2018-12-11T09:38:24.887Z,49.21
2018-12-11T09:39:24.844Z,49.80
2018-12-11T09:40:24.898Z,47.24
2018-12-11T09:41:24.826Z,47.34
2018-12-11T09:42:27.909Z,46.50
2018-12-11T09:43:24.860Z,46.60
2018-12-11T09:44:24.890Z,46.68
2018-12-11T09:45:24.782Z,45.03
2018-12-11T09:46:24.765Z,45.52
2018-12-11T09:47:24.894Z,44.59
2018-12-11T09:48:24.858Z,44.18
2018-12-11T09:49:24.785Z,43.98
2018-12-11T09:50:25.141Z,44.67
2018-12-11T09:51:24.715Z,43.96
2018-12-11T09:52:24.745Z,43.43
2018-12-11T09:53:24.692Z,43.00
2018-12-11T09:54:25.199Z,43.00
2018-12-11T09:55:24.858Z,42.19
2018-12-11T09:56:24.680Z,42.84
2018-12-11T09:57:24.646Z,43.85
2018-12-11T09:58:24.626Z,43.77
2018-12-11T09:59:24.632Z,43.57
2018-12-11T10:00:27.262Z,44.28
2018-12-11T10:01:24.743Z,43.77
2018-12-11T10:02:24.620Z,43.65
2018-12-11T10:03:24.574Z,44.08
2018-12-11T10:04:24.616Z,43.35
2018-12-11T10:05:24.549Z,43.44
2018-12-11T10:06:24.552Z,43.37
2018-12-11T10:07:24.568Z,44.10
2018-12-11T10:08:24.514Z,44.53
2018-12-11T10:09:24.506Z,44.93
2018-12-11T10:10:24.510Z,44.91
2018-12-11T10:11:24.627Z,45.75
2018-12-11T10:12:24.492Z,44.91
2018-12-11T10:13:24.458Z,44.51
2018-12-11T10:14:24.468Z,45.52
2018-12-11T10:15:24.441Z,44.60
2018-12-11T10:16:24.506Z,44.60
2018-12-11T10:17:24.453Z,44.08
2018-12-11T10:18:24.400Z,44.18
2018-12-11T10:19:24.429Z,43.65
2018-12-11T10:20:24.389Z,43.85
2018-12-11T10:21:24.370Z,44.06
2018-12-11T10:22:24.390Z,42.82
2018-12-11T10:23:24.346Z,43.12
2018-12-11T10:24:24.393Z,44.16
2018-12-11T10:25:24.376Z,43.65
2018-12-11T10:26:24.363Z,43.96
2018-12-11T10:27:24.313Z,44.56
2018-12-11T10:28:24.299Z,46.21
2018-12-11T10:29:24.344Z,46.29
2018-12-11T10:30:24.267Z,44.74
2018-12-11T10:31:24.270Z,44.20
2018-12-11T10:32:24.347Z,43.14
2018-12-11T10:33:24.272Z,43.32
2018-12-11T10:34:24.386Z,42.69
2018-12-11T10:35:24.671Z,41.35
2018-12-11T10:36:24.545Z,40.82
2018-12-11T10:37:24.252Z,40.09
2018-12-11T10:38:24.318Z,39.69
2018-12-11T10:39:24.178Z,39.37
2018-12-11T10:40:24.183Z,39.04
2018-12-11T10:41:24.147Z,39.43
2018-12-11T10:42:24.169Z,38.73
2018-12-11T10:43:24.317Z,38.20
2018-12-11T10:44:24.241Z,38.10
2018-12-11T10:45:24.097Z,37.78
2018-12-11T10:46:24.110Z,37.68
2018-12-11T10:47:24.074Z,36.86
2018-12-11T10:48:24.566Z,37.26
2018-12-11T10:49:24.066Z,37.66
2018-12-11T10:50:24.041Z,37.14
2018-12-11T10:51:24.107Z,36.64
2018-12-11T10:52:24.208Z,36.54
2018-12-11T10:53:24.297Z,37.34
2018-12-11T10:54:24.004Z,37.32
2018-12-11T10:55:24.070Z,37.54
2018-12-11T10:56:24.408Z,36.72
2018-12-11T10:57:24.210Z,36.42
2018-12-11T10:58:24.044Z,37.01
2018-12-11T10:59:24.089Z,35.90
2018-12-11T11:00:24.134Z,36.20
2018-12-11T11:01:23.922Z,36.20
2018-12-11T11:02:23.991Z,36.40
2018-12-11T11:03:25.203Z,36.00
2018-12-11T11:04:23.973Z,36.00
2018-12-11T11:05:23.901Z,35.80
2018-12-11T11:06:23.882Z,36.29
2018-12-11T11:07:23.875Z,36.00
2018-12-11T11:08:23.841Z,36.58
2018-12-11T11:09:23.847Z,35.98
2018-12-11T11:10:23.824Z,35.98
2018-12-11T11:11:23.866Z,36.38
2018-12-11T11:12:23.831Z,35.78
2018-12-11T11:13:23.782Z,36.27
2018-12-11T11:14:25.178Z,35.88
2018-12-11T11:15:23.881Z,35.86
2018-12-11T11:16:23.787Z,35.78
2018-12-11T11:17:23.783Z,35.77
2018-12-11T11:18:23.732Z,35.86
2018-12-11T11:19:23.752Z,35.86
2018-12-11T11:20:23.700Z,35.86
2018-12-11T11:21:23.726Z,35.57
2018-12-11T11:22:23.680Z,35.86
2018-12-11T11:23:23.700Z,35.86
2018-12-11T11:24:23.802Z,35.86
2018-12-11T11:25:23.742Z,35.66
2018-12-11T11:26:24.192Z,35.57
2018-12-11T11:27:23.695Z,35.85
2018-12-11T11:28:23.711Z,35.46
2018-12-11T11:29:23.595Z,34.94
2018-12-11T11:30:23.645Z,35.25
2018-12-11T11:31:23.682Z,34.92
2018-12-11T11:32:23.560Z,34.33
2018-12-11T11:33:23.558Z,34.42
2018-12-11T11:34:23.599Z,34.42
2018-12-11T11:35:23.647Z,34.24
2018-12-11T11:36:23.562Z,34.22
2018-12-11T11:37:23.521Z,34.33
2018-12-11T11:38:23.518Z,34.63
2018-12-11T11:39:23.501Z,34.42
2018-12-11T11:40:23.469Z,33.83
2018-12-11T11:41:23.505Z,34.02
2018-12-11T11:42:23.454Z,34.12
2018-12-11T11:43:23.448Z,34.61
2018-12-11T11:44:23.429Z,34.31
2018-12-11T11:45:23.420Z,34.21
2018-12-11T11:46:23.400Z,34.51
2018-12-11T11:47:23.460Z,34.61
2018-12-11T11:48:23.391Z,33.89
2018-12-11T11:49:23.368Z,34.39
2018-12-11T11:50:23.359Z,33.99
2018-12-11T11:51:23.399Z,34.29
2018-12-11T11:52:23.544Z,34.89
2018-12-11T11:53:23.326Z,34.59
2018-12-11T11:54:23.337Z,33.69
2018-12-11T11:55:23.315Z,34.48
2018-12-11T11:56:23.402Z,33.49
2018-12-11T11:57:29.556Z,33.59
2018-12-11T11:58:24.265Z,34.19
2018-12-11T11:59:23.373Z,33.69
2018-12-11T12:00:23.253Z,34.19
2018-12-11T12:01:23.231Z,33.49
2018-12-11T12:02:23.262Z,33.09
2018-12-11T12:03:23.366Z,33.89
2018-12-11T12:04:30.525Z,34.49
2018-12-11T12:05:23.188Z,34.17
2018-12-11T12:06:23.298Z,33.89
2018-12-11T12:07:23.166Z,33.78
2018-12-11T12:08:23.163Z,33.37
2018-12-11T12:09:23.183Z,33.58
2018-12-11T12:10:23.138Z,33.98
2018-12-11T12:11:23.146Z,33.37
2018-12-11T12:12:23.145Z,33.47
2018-12-11T12:13:23.625Z,33.67
2018-12-11T12:14:23.103Z,33.67
2018-12-11T12:15:23.077Z,33.67
2018-12-11T12:16:23.063Z,34.58
2018-12-11T12:17:23.127Z,33.78
2018-12-11T12:18:23.072Z,34.28
2018-12-11T12:19:23.044Z,33.87
2018-12-11T12:20:23.021Z,33.47
2018-12-11T12:21:23.022Z,34.36
2018-12-11T12:22:23.023Z,33.86
2018-12-11T12:23:22.998Z,33.46
2018-12-11T12:24:23.017Z,34.46
2018-12-11T12:25:22.995Z,33.86
2018-12-11T12:26:22.991Z,33.36
2018-12-11T12:27:22.943Z,33.16
2018-12-11T12:28:23.061Z,33.74
2018-12-11T12:29:22.916Z,33.46
2018-12-11T12:30:22.906Z,33.66
2018-12-11T12:31:22.908Z,33.76
2018-12-11T12:32:22.882Z,33.66
2018-12-11T12:33:22.889Z,33.46
2018-12-11T12:34:22.969Z,33.36
2018-12-11T12:35:22.900Z,33.16
2018-12-11T12:36:22.839Z,33.76
2018-12-11T12:37:22.861Z,33.94
2018-12-11T12:38:22.829Z,33.14
2018-12-11T12:39:22.820Z,34.05
2018-12-11T12:40:22.877Z,33.14
2018-12-11T12:41:22.782Z,33.44
2018-12-11T12:42:22.857Z,33.54
2018-12-11T12:43:22.802Z,33.14
2018-12-11T12:44:22.819Z,33.34
2018-12-11T12:45:22.736Z,33.03
2018-12-11T12:46:22.726Z,34.23
2018-12-11T12:47:22.718Z,33.34
2018-12-11T12:48:22.707Z,33.14
2018-12-11T12:49:22.783Z,34.12
2018-12-11T12:50:22.717Z,34.53
2018-12-11T12:51:22.669Z,33.43
2018-12-11T12:52:22.707Z,33.24